Rockwall, TX (75087)

10:29 AM CDT on July 24, 2016 (GMT -0500)
Woodcreek | | Change Station

Elev 620 ft 32.94 °N, 96.40 °W | Updated 11 seconds ago

Clear
Clear
93.0 °F
Feels Like 100 °F
N
6.0
Wind Variable Wind from West
Gusts 6.0 mph

Today
High -- | Low -- °F
--% Chance of Precip.
Yesterday
High -- | Low -- °F
Precip. -- in
Pressure 29.98 in
Visibility 10.0 miles
Clouds Clear
Heat Index 100 °F
Dew Point 70 °F
Humidity 48%
Rainfall 0.00 in
Snow Depth Not available.
6:34 AM 8:29 PM
Waning Gibbous, 75% visible
METAR KF46 241515Z AUTO 26006G15KT 10SM CLR 31/23 A2998 RMK AO2 T03050232
Pressure 29.98 in
Visibility 10.0 miles
Clouds Clear
Heat Index 100 °F
Dew Point 70 °F
Humidity 48%
Rainfall 0.00 in
Snow Depth Not available.
6:34 AM 8:29 PM
Waning Gibbous, 75% visible
METAR KF46 241515Z AUTO 26006G15KT 10SM CLR 31/23 A2998 RMK AO2 T03050232

10-Day Weather Forecast

Almanac

Astronomy

Jul. 24, 2016 Rise Set
Actual Time
Civil Twilight
Nautical Twilight
Astronomical Twilight
Moon
Length of Visible Light
Length of Day
Tomorrow will be .
, % of the Moon is Illuminated

Today's Extremes

State Highs State Lows

Community

WunderPhotos

Upload Photos

1,927,086 photos uploaded!

WunderBlog® & News

Nearby

Air Quality

  Air Quality AQ Index Pollutant
Not available.

Snow Depth

Station Depth Elevation

Earthquake Activity

City Distance Mag. Time & Date
Minimum magnitude displayed is 2.5.

Coastal Water Temperatures

Place Temperature

Stations

Nearby Weather Stations

Station Location Temp. Windchill Dew Point Humidity Wind Precip. Elev Updated Type
                   

Watches & Warnings

There are currently no watches in effect.